sensor_id;sensor_type;location;lat;lon;timestamp;P1;durP1;ratioP1;P2;durP2;ratioP2
12663;SDS011;6396;58.490;15.528;2023-02-17T00:02:14;19.63;;;10.70;;
12663;SDS011;6396;58.490;15.528;2023-02-17T00:05:05;18.63;;;10.43;;
12663;SDS011;6396;58.490;15.528;2023-02-17T00:07:56;20.13;;;10.67;;
12663;SDS011;6396;58.490;15.528;2023-02-17T00:10:55;16.50;;;10.43;;
12663;SDS011;6396;58.490;15.528;2023-02-17T00:13:43;18.97;;;10.73;;
12663;SDS011;6396;58.490;15.528;2023-02-17T00:16:27;17.70;;;10.83;;
12663;SDS011;6396;58.490;15.528;2023-02-17T00:19:18;18.10;;;10.47;;
12663;SDS011;6396;58.490;15.528;2023-02-17T00:31:19;17.83;;;10.57;;
12663;SDS011;6396;58.490;15.528;2023-02-17T00:34:07;18.67;;;10.70;;
12663;SDS011;6396;58.490;15.528;2023-02-17T00:36:49;20.10;;;10.83;;
12663;SDS011;6396;58.490;15.528;2023-02-17T00:39:48;17.13;;;10.30;;
12663;SDS011;6396;58.490;15.528;2023-02-17T00:42:29;18.73;;;10.20;;
12663;SDS011;6396;58.490;15.528;2023-02-17T00:44:57;18.20;;;9.83;;
12663;SDS011;6396;58.490;15.528;2023-02-17T00:47:26;16.23;;;10.43;;
12663;SDS011;6396;58.490;15.528;2023-02-17T00:50:00;19.67;;;11.30;;
12663;SDS011;6396;58.490;15.528;2023-02-17T00:52:27;18.47;;;11.03;;
12663;SDS011;6396;58.490;15.528;2023-02-17T00:54:55;22.30;;;11.50;;
12663;SDS011;6396;58.490;15.528;2023-02-17T00:57:23;21.27;;;12.07;;
12663;SDS011;6396;58.490;15.528;2023-02-17T00:59:57;17.30;;;10.80;;
12663;SDS011;6396;58.490;15.528;2023-02-17T01:02:27;18.03;;;10.47;;
12663;SDS011;6396;58.490;15.528;2023-02-17T01:04:54;20.13;;;11.57;;
12663;SDS011;6396;58.490;15.528;2023-02-17T01:07:22;22.33;;;11.20;;
12663;SDS011;6396;58.490;15.528;2023-02-17T01:09:50;22.00;;;11.30;;
12663;SDS011;6396;58.490;15.528;2023-02-17T01:12:20;22.50;;;11.00;;
12663;SDS011;6396;58.490;15.528;2023-02-17T01:14:48;23.67;;;12.87;;
12663;SDS011;6396;58.490;15.528;2023-02-17T01:17:17;28.47;;;12.03;;
12663;SDS011;6396;58.490;15.528;2023-02-17T01:19:48;21.67;;;10.97;;
12663;SDS011;6396;58.490;15.528;2023-02-17T01:22:16;20.50;;;12.17;;
12663;SDS011;6396;58.490;15.528;2023-02-17T01:24:45;23.37;;;11.17;;
12663;SDS011;6396;58.490;15.528;2023-02-17T01:27:13;23.13;;;11.57;;
12663;SDS011;6396;58.490;15.528;2023-02-17T01:29:42;21.93;;;10.97;;
12663;SDS011;6396;58.490;15.528;2023-02-17T01:32:10;24.40;;;10.40;;
12663;SDS011;6396;58.490;15.528;2023-02-17T01:34:56;22.13;;;11.97;;
12663;SDS011;6396;58.490;15.528;2023-02-17T01:37:28;20.40;;;10.90;;
12663;SDS011;6396;58.490;15.528;2023-02-17T01:40:12;22.13;;;11.50;;
12663;SDS011;6396;58.490;15.528;2023-02-17T01:42:41;20.27;;;11.10;;
12663;SDS011;6396;58.490;15.528;2023-02-17T01:48:12;22.43;;;10.70;;
12663;SDS011;6396;58.490;15.528;2023-02-17T01:50:59;25.53;;;10.80;;
12663;SDS011;6396;58.490;15.528;2023-02-17T01:53:38;19.47;;;9.83;;
12663;SDS011;6396;58.490;15.528;2023-02-17T01:56:09;18.50;;;10.00;;
12663;SDS011;6396;58.490;15.528;2023-02-17T01:58:40;20.40;;;10.37;;
12663;SDS011;6396;58.490;15.528;2023-02-17T02:01:11;14.13;;;9.37;;
12663;SDS011;6396;58.490;15.528;2023-02-17T02:03:43;20.30;;;10.80;;
12663;SDS011;6396;58.490;15.528;2023-02-17T02:06:14;15.37;;;9.20;;
12663;SDS011;6396;58.490;15.528;2023-02-17T02:08:48;17.63;;;9.43;;
12663;SDS011;6396;58.490;15.528;2023-02-17T02:11:20;18.50;;;9.63;;
12663;SDS011;6396;58.490;15.528;2023-02-17T02:13:47;16.60;;;9.90;;
12663;SDS011;6396;58.490;15.528;2023-02-17T02:16:24;22.43;;;8.63;;
12663;SDS011;6396;58.490;15.528;2023-02-17T02:18:58;17.73;;;9.13;;
12663;SDS011;6396;58.490;15.528;2023-02-17T02:21:57;20.30;;;9.23;;
12663;SDS011;6396;58.490;15.528;2023-02-17T02:25:05;19.10;;;8.67;;
12663;SDS011;6396;58.490;15.528;2023-02-17T02:28:02;16.73;;;8.67;;
12663;SDS011;6396;58.490;15.528;2023-02-17T02:30:49;13.03;;;8.27;;
12663;SDS011;6396;58.490;15.528;2023-02-17T02:33:48;16.37;;;9.43;;
12663;SDS011;6396;58.490;15.528;2023-02-17T02:37:05;14.63;;;8.53;;
12663;SDS011;6396;58.490;15.528;2023-02-17T02:39:43;16.87;;;8.73;;
12663;SDS011;6396;58.490;15.528;2023-02-17T02:42:45;18.20;;;8.80;;
12663;SDS011;6396;58.490;15.528;2023-02-17T02:45:17;17.67;;;9.53;;
12663;SDS011;6396;58.490;15.528;2023-02-17T02:47:46;17.40;;;9.03;;
12663;SDS011;6396;58.490;15.528;2023-02-17T02:50:17;17.13;;;8.67;;
12663;SDS011;6396;58.490;15.528;2023-02-17T02:52:57;17.10;;;9.10;;
12663;SDS011;6396;58.490;15.528;2023-02-17T02:55:41;17.37;;;8.87;;
12663;SDS011;6396;58.490;15.528;2023-02-17T02:58:19;20.30;;;9.40;;
12663;SDS011;6396;58.490;15.528;2023-02-17T03:00:53;16.20;;;10.03;;
12663;SDS011;6396;58.490;15.528;2023-02-17T03:03:28;18.17;;;9.37;;
12663;SDS011;6396;58.490;15.528;2023-02-17T03:09:20;15.20;;;8.93;;
12663;SDS011;6396;58.490;15.528;2023-02-17T03:11:56;15.97;;;9.23;;
12663;SDS011;6396;58.490;15.528;2023-02-17T03:14:24;14.97;;;8.53;;
12663;SDS011;6396;58.490;15.528;2023-02-17T03:16:56;16.77;;;9.33;;
12663;SDS011;6396;58.490;15.528;2023-02-17T03:19:26;17.67;;;9.00;;
12663;SDS011;6396;58.490;15.528;2023-02-17T03:21:57;17.50;;;9.20;;
12663;SDS011;6396;58.490;15.528;2023-02-17T03:24:34;15.53;;;8.87;;
12663;SDS011;6396;58.490;15.528;2023-02-17T03:27:02;14.23;;;8.83;;
12663;SDS011;6396;58.490;15.528;2023-02-17T03:29:33;16.97;;;8.77;;
12663;SDS011;6396;58.490;15.528;2023-02-17T03:32:03;17.27;;;8.57;;
12663;SDS011;6396;58.490;15.528;2023-02-17T03:34:31;15.30;;;8.30;;
12663;SDS011;6396;58.490;15.528;2023-02-17T03:36:59;16.70;;;8.73;;
12663;SDS011;6396;58.490;15.528;2023-02-17T03:39:28;14.93;;;8.10;;
12663;SDS011;6396;58.490;15.528;2023-02-17T03:41:55;16.73;;;8.70;;
12663;SDS011;6396;58.490;15.528;2023-02-17T03:44:27;15.37;;;8.10;;
12663;SDS011;6396;58.490;15.528;2023-02-17T03:46:58;12.23;;;7.93;;
12663;SDS011;6396;58.490;15.528;2023-02-17T03:49:25;11.60;;;8.03;;
12663;SDS011;6396;58.490;15.528;2023-02-17T03:51:53;18.17;;;8.93;;
12663;SDS011;6396;58.490;15.528;2023-02-17T03:54:23;17.93;;;8.40;;
12663;SDS011;6396;58.490;15.528;2023-02-17T03:56:57;13.40;;;7.90;;
12663;SDS011;6396;58.490;15.528;2023-02-17T03:59:31;14.27;;;8.10;;
12663;SDS011;6396;58.490;15.528;2023-02-17T04:02:03;14.67;;;7.63;;
12663;SDS011;6396;58.490;15.528;2023-02-17T04:04:37;14.83;;;8.57;;
12663;SDS011;6396;58.490;15.528;2023-02-17T04:07:06;18.73;;;8.60;;
12663;SDS011;6396;58.490;15.528;2023-02-17T04:09:49;17.27;;;8.00;;
12663;SDS011;6396;58.490;15.528;2023-02-17T04:12:17;15.67;;;7.57;;
12663;SDS011;6396;58.490;15.528;2023-02-17T04:14:59;15.17;;;8.67;;
12663;SDS011;6396;58.490;15.528;2023-02-17T04:17:35;14.67;;;8.37;;
12663;SDS011;6396;58.490;15.528;2023-02-17T04:20:18;17.60;;;8.43;;
12663;SDS011;6396;58.490;15.528;2023-02-17T04:23:12;18.27;;;8.73;;
12663;SDS011;6396;58.490;15.528;2023-02-17T04:29:37;15.70;;;8.70;;
12663;SDS011;6396;58.490;15.528;2023-02-17T04:32:10;18.07;;;9.03;;
12663;SDS011;6396;58.490;15.528;2023-02-17T04:34:38;16.00;;;8.40;;
12663;SDS011;6396;58.490;15.528;2023-02-17T04:37:05;13.93;;;8.33;;
12663;SDS011;6396;58.490;15.528;2023-02-17T04:39:33;16.70;;;8.97;;
12663;SDS011;6396;58.490;15.528;2023-02-17T04:42:02;16.00;;;9.17;;
12663;SDS011;6396;58.490;15.528;2023-02-17T04:44:39;21.00;;;9.70;;
12663;SDS011;6396;58.490;15.528;2023-02-17T04:47:13;22.20;;;9.27;;
12663;SDS011;6396;58.490;15.528;2023-02-17T04:49:41;17.67;;;9.40;;
12663;SDS011;6396;58.490;15.528;2023-02-17T04:52:10;16.33;;;8.77;;
12663;SDS011;6396;58.490;15.528;2023-02-17T04:54:38;16.07;;;8.97;;
12663;SDS011;6396;58.490;15.528;2023-02-17T04:57:09;15.93;;;8.43;;
12663;SDS011;6396;58.490;15.528;2023-02-17T04:59:49;14.93;;;8.80;;
12663;SDS011;6396;58.490;15.528;2023-02-17T05:02:17;14.27;;;9.10;;
12663;SDS011;6396;58.490;15.528;2023-02-17T05:04:45;15.73;;;8.77;;
12663;SDS011;6396;58.490;15.528;2023-02-17T05:07:16;14.70;;;8.33;;
12663;SDS011;6396;58.490;15.528;2023-02-17T05:10:01;15.93;;;8.17;;
12663;SDS011;6396;58.490;15.528;2023-02-17T05:12:48;14.37;;;8.63;;
12663;SDS011;6396;58.490;15.528;2023-02-17T05:15:20;17.20;;;9.37;;
12663;SDS011;6396;58.490;15.528;2023-02-17T05:17:48;18.57;;;9.80;;
12663;SDS011;6396;58.490;15.528;2023-02-17T05:20:16;17.17;;;9.43;;
12663;SDS011;6396;58.490;15.528;2023-02-17T05:22:44;17.83;;;9.93;;
12663;SDS011;6396;58.490;15.528;2023-02-17T05:25:11;21.17;;;12.30;;
12663;SDS011;6396;58.490;15.528;2023-02-17T05:27:42;21.00;;;10.17;;
12663;SDS011;6396;58.490;15.528;2023-02-17T05:30:15;21.17;;;10.57;;
12663;SDS011;6396;58.490;15.528;2023-02-17T05:32:44;22.77;;;10.67;;
12663;SDS011;6396;58.490;15.528;2023-02-17T05:35:11;18.07;;;10.17;;
12663;SDS011;6396;58.490;15.528;2023-02-17T05:37:38;19.83;;;10.03;;
12663;SDS011;6396;58.490;15.528;2023-02-17T05:40:05;13.40;;;8.83;;
12663;SDS011;6396;58.490;15.528;2023-02-17T05:42:33;19.37;;;9.03;;
12663;SDS011;6396;58.490;15.528;2023-02-17T05:45:02;17.23;;;9.27;;
12663;SDS011;6396;58.490;15.528;2023-02-17T05:47:29;16.03;;;8.83;;
12663;SDS011;6396;58.490;15.528;2023-02-17T05:49:58;17.67;;;8.83;;
12663;SDS011;6396;58.490;15.528;2023-02-17T05:52:25;14.20;;;8.50;;
12663;SDS011;6396;58.490;15.528;2023-02-17T05:54:52;17.03;;;9.00;;
12663;SDS011;6396;58.490;15.528;2023-02-17T05:57:19;15.63;;;9.10;;
12663;SDS011;6396;58.490;15.528;2023-02-17T05:59:46;16.23;;;8.97;;
12663;SDS011;6396;58.490;15.528;2023-02-17T06:02:13;15.10;;;9.17;;
12663;SDS011;6396;58.490;15.528;2023-02-17T06:04:57;14.67;;;8.90;;
12663;SDS011;6396;58.490;15.528;2023-02-17T06:07:26;16.23;;;9.07;;
12663;SDS011;6396;58.490;15.528;2023-02-17T06:09:52;18.37;;;9.60;;
12663;SDS011;6396;58.490;15.528;2023-02-17T06:12:19;15.37;;;9.20;;
12663;SDS011;6396;58.490;15.528;2023-02-17T06:14:46;20.67;;;10.53;;
12663;SDS011;6396;58.490;15.528;2023-02-17T06:17:13;17.30;;;9.07;;
12663;SDS011;6396;58.490;15.528;2023-02-17T06:19:41;18.00;;;9.43;;
12663;SDS011;6396;58.490;15.528;2023-02-17T06:22:09;19.70;;;9.23;;
12663;SDS011;6396;58.490;15.528;2023-02-17T06:24:36;16.90;;;9.30;;
12663;SDS011;6396;58.490;15.528;2023-02-17T06:27:03;16.33;;;9.30;;
12663;SDS011;6396;58.490;15.528;2023-02-17T06:29:39;15.37;;;8.70;;
12663;SDS011;6396;58.490;15.528;2023-02-17T06:32:13;16.47;;;8.73;;
12663;SDS011;6396;58.490;15.528;2023-02-17T06:34:40;20.27;;;10.27;;
12663;SDS011;6396;58.490;15.528;2023-02-17T06:37:09;16.23;;;9.37;;
12663;SDS011;6396;58.490;15.528;2023-02-17T06:39:36;18.77;;;9.73;;
12663;SDS011;6396;58.490;15.528;2023-02-17T06:42:02;19.83;;;10.10;;
12663;SDS011;6396;58.490;15.528;2023-02-17T06:44:29;21.43;;;10.03;;
12663;SDS011;6396;58.490;15.528;2023-02-17T06:46:56;22.40;;;9.77;;
12663;SDS011;6396;58.490;15.528;2023-02-17T06:49:34;13.93;;;8.47;;
12663;SDS011;6396;58.490;15.528;2023-02-17T06:52:01;17.63;;;9.77;;
12663;SDS011;6396;58.490;15.528;2023-02-17T06:54:31;17.20;;;9.57;;
12663;SDS011;6396;58.490;15.528;2023-02-17T06:57:00;18.23;;;9.20;;
12663;SDS011;6396;58.490;15.528;2023-02-17T06:59:27;14.83;;;8.57;;
12663;SDS011;6396;58.490;15.528;2023-02-17T07:01:59;18.90;;;9.63;;
12663;SDS011;6396;58.490;15.528;2023-02-17T07:04:28;17.73;;;9.87;;
12663;SDS011;6396;58.490;15.528;2023-02-17T07:06:57;18.97;;;9.50;;
12663;SDS011;6396;58.490;15.528;2023-02-17T07:09:25;16.50;;;9.77;;
12663;SDS011;6396;58.490;15.528;2023-02-17T07:11:57;19.80;;;9.53;;
12663;SDS011;6396;58.490;15.528;2023-02-17T07:14:25;16.23;;;9.03;;
12663;SDS011;6396;58.490;15.528;2023-02-17T07:17:10;18.33;;;10.00;;
12663;SDS011;6396;58.490;15.528;2023-02-17T07:20:02;15.83;;;9.73;;
12663;SDS011;6396;58.490;15.528;2023-02-17T07:26:20;17.47;;;9.60;;
12663;SDS011;6396;58.490;15.528;2023-02-17T07:35:31;18.20;;;10.43;;
12663;SDS011;6396;58.490;15.528;2023-02-17T07:38:18;16.80;;;10.20;;
12663;SDS011;6396;58.490;15.528;2023-02-17T07:44:32;17.77;;;10.43;;
12663;SDS011;6396;58.490;15.528;2023-02-17T07:47:00;21.20;;;11.07;;
12663;SDS011;6396;58.490;15.528;2023-02-17T07:49:27;20.93;;;10.50;;
12663;SDS011;6396;58.490;15.528;2023-02-17T07:51:54;19.27;;;11.50;;
12663;SDS011;6396;58.490;15.528;2023-02-17T07:54:22;19.77;;;12.60;;
12663;SDS011;6396;58.490;15.528;2023-02-17T07:56:49;20.93;;;11.67;;
12663;SDS011;6396;58.490;15.528;2023-02-17T07:59:16;19.87;;;11.70;;
12663;SDS011;6396;58.490;15.528;2023-02-17T08:01:43;25.30;;;12.50;;
12663;SDS011;6396;58.490;15.528;2023-02-17T08:04:11;23.43;;;11.67;;
12663;SDS011;6396;58.490;15.528;2023-02-17T08:06:38;20.13;;;12.03;;
12663;SDS011;6396;58.490;15.528;2023-02-17T08:09:08;17.43;;;11.23;;
12663;SDS011;6396;58.490;15.528;2023-02-17T08:11:53;22.87;;;11.80;;
12663;SDS011;6396;58.490;15.528;2023-02-17T08:14:37;20.30;;;11.10;;
12663;SDS011;6396;58.490;15.528;2023-02-17T08:17:04;17.20;;;10.73;;
12663;SDS011;6396;58.490;15.528;2023-02-17T08:19:34;18.47;;;10.50;;
12663;SDS011;6396;58.490;15.528;2023-02-17T08:22:01;19.27;;;11.03;;
12663;SDS011;6396;58.490;15.528;2023-02-17T08:24:28;18.10;;;11.00;;
12663;SDS011;6396;58.490;15.528;2023-02-17T08:26:55;18.07;;;10.90;;
12663;SDS011;6396;58.490;15.528;2023-02-17T08:29:22;17.30;;;10.70;;
12663;SDS011;6396;58.490;15.528;2023-02-17T08:31:50;21.07;;;11.50;;
12663;SDS011;6396;58.490;15.528;2023-02-17T08:34:18;20.67;;;10.60;;
12663;SDS011;6396;58.490;15.528;2023-02-17T08:36:47;22.03;;;10.93;;
12663;SDS011;6396;58.490;15.528;2023-02-17T08:39:15;19.53;;;10.60;;
12663;SDS011;6396;58.490;15.528;2023-02-17T08:41:43;20.70;;;10.87;;
12663;SDS011;6396;58.490;15.528;2023-02-17T08:44:12;22.57;;;11.87;;
12663;SDS011;6396;58.490;15.528;2023-02-17T08:46:40;21.87;;;11.60;;
12663;SDS011;6396;58.490;15.528;2023-02-17T08:49:08;18.77;;;11.23;;
12663;SDS011;6396;58.490;15.528;2023-02-17T08:51:36;22.93;;;12.13;;
12663;SDS011;6396;58.490;15.528;2023-02-17T08:54:05;20.13;;;11.07;;
12663;SDS011;6396;58.490;15.528;2023-02-17T08:56:34;21.00;;;12.10;;
12663;SDS011;6396;58.490;15.528;2023-02-17T08:59:03;20.07;;;10.80;;
12663;SDS011;6396;58.490;15.528;2023-02-17T09:01:30;22.13;;;11.50;;
12663;SDS011;6396;58.490;15.528;2023-02-17T09:03:58;24.33;;;11.47;;
12663;SDS011;6396;58.490;15.528;2023-02-17T09:06:30;21.93;;;12.60;;
12663;SDS011;6396;58.490;15.528;2023-02-17T09:08:58;19.40;;;11.53;;
12663;SDS011;6396;58.490;15.528;2023-02-17T09:11:26;22.70;;;12.43;;
12663;SDS011;6396;58.490;15.528;2023-02-17T09:13:53;27.13;;;12.53;;
12663;SDS011;6396;58.490;15.528;2023-02-17T09:16:20;23.90;;;12.63;;
12663;SDS011;6396;58.490;15.528;2023-02-17T09:18:48;24.10;;;13.37;;
12663;SDS011;6396;58.490;15.528;2023-02-17T09:21:16;24.07;;;12.87;;
12663;SDS011;6396;58.490;15.528;2023-02-17T09:23:43;24.80;;;13.20;;
12663;SDS011;6396;58.490;15.528;2023-02-17T09:26:11;26.40;;;12.90;;
12663;SDS011;6396;58.490;15.528;2023-02-17T09:28:41;23.70;;;12.27;;
12663;SDS011;6396;58.490;15.528;2023-02-17T09:34:25;23.73;;;12.80;;
12663;SDS011;6396;58.490;15.528;2023-02-17T09:40:19;27.97;;;14.03;;
12663;SDS011;6396;58.490;15.528;2023-02-17T09:43:16;25.57;;;13.10;;
12663;SDS011;6396;58.490;15.528;2023-02-17T10:06:17;24.00;;;12.67;;
12663;SDS011;6396;58.490;15.528;2023-02-17T10:08:51;30.53;;;15.37;;
12663;SDS011;6396;58.490;15.528;2023-02-17T10:11:25;26.17;;;13.77;;
12663;SDS011;6396;58.490;15.528;2023-02-17T10:36:31;30.83;;;15.80;;
12663;SDS011;6396;58.490;15.528;2023-02-17T10:39:13;28.33;;;14.40;;
12663;SDS011;6396;58.490;15.528;2023-02-17T10:41:55;28.77;;;15.10;;
12663;SDS011;6396;58.490;15.528;2023-02-17T10:44:22;29.37;;;13.90;;
12663;SDS011;6396;58.490;15.528;2023-02-17T10:46:50;23.10;;;13.47;;
12663;SDS011;6396;58.490;15.528;2023-02-17T10:49:20;30.70;;;14.73;;
12663;SDS011;6396;58.490;15.528;2023-02-17T10:51:54;24.90;;;14.03;;
12663;SDS011;6396;58.490;15.528;2023-02-17T10:54:28;23.30;;;12.97;;
12663;SDS011;6396;58.490;15.528;2023-02-17T10:57:00;25.40;;;13.17;;
12663;SDS011;6396;58.490;15.528;2023-02-17T10:59:31;27.77;;;13.57;;
12663;SDS011;6396;58.490;15.528;2023-02-17T11:02:11;27.10;;;13.83;;
12663;SDS011;6396;58.490;15.528;2023-02-17T11:04:42;23.33;;;12.93;;
12663;SDS011;6396;58.490;15.528;2023-02-17T11:07:13;27.47;;;13.47;;
12663;SDS011;6396;58.490;15.528;2023-02-17T11:09:44;27.80;;;13.60;;
12663;SDS011;6396;58.490;15.528;2023-02-17T11:12:16;23.63;;;12.77;;
12663;SDS011;6396;58.490;15.528;2023-02-17T11:14:52;22.03;;;12.33;;
12663;SDS011;6396;58.490;15.528;2023-02-17T11:17:35;23.77;;;12.57;;
12663;SDS011;6396;58.490;15.528;2023-02-17T11:20:26;25.87;;;12.20;;
12663;SDS011;6396;58.490;15.528;2023-02-17T11:26:01;26.60;;;12.67;;
12663;SDS011;6396;58.490;15.528;2023-02-17T11:28:42;24.37;;;12.13;;
12663;SDS011;6396;58.490;15.528;2023-02-17T11:31:20;26.67;;;12.43;;
12663;SDS011;6396;58.490;15.528;2023-02-17T11:33:49;26.17;;;12.73;;
12663;SDS011;6396;58.490;15.528;2023-02-17T11:36:21;22.87;;;13.30;;
12663;SDS011;6396;58.490;15.528;2023-02-17T11:38:52;25.47;;;12.73;;
12663;SDS011;6396;58.490;15.528;2023-02-17T11:41:19;25.67;;;12.87;;
12663;SDS011;6396;58.490;15.528;2023-02-17T11:43:50;27.77;;;12.83;;
12663;SDS011;6396;58.490;15.528;2023-02-17T11:46:20;30.10;;;13.07;;
12663;SDS011;6396;58.490;15.528;2023-02-17T11:48:56;24.43;;;13.47;;
12663;SDS011;6396;58.490;15.528;2023-02-17T11:51:52;29.43;;;13.20;;
12663;SDS011;6396;58.490;15.528;2023-02-17T11:54:34;22.50;;;12.07;;
12663;SDS011;6396;58.490;15.528;2023-02-17T11:57:16;25.50;;;12.67;;
12663;SDS011;6396;58.490;15.528;2023-02-17T11:59:59;26.23;;;12.63;;
12663;SDS011;6396;58.490;15.528;2023-02-17T12:03:00;23.03;;;11.63;;
12663;SDS011;6396;58.490;15.528;2023-02-17T12:32:06;16.17;;;9.57;;
12663;SDS011;6396;58.490;15.528;2023-02-17T12:34:46;17.53;;;9.30;;
12663;SDS011;6396;58.490;15.528;2023-02-17T12:37:20;17.47;;;9.03;;
12663;SDS011;6396;58.490;15.528;2023-02-17T12:39:50;16.27;;;9.20;;
12663;SDS011;6396;58.490;15.528;2023-02-17T12:42:22;18.47;;;9.43;;
12663;SDS011;6396;58.490;15.528;2023-02-17T12:44:54;17.23;;;8.60;;
12663;SDS011;6396;58.490;15.528;2023-02-17T12:47:26;13.27;;;7.57;;
12663;SDS011;6396;58.490;15.528;2023-02-17T12:50:00;13.53;;;7.37;;
12663;SDS011;6396;58.490;15.528;2023-02-17T12:52:31;13.87;;;7.50;;
12663;SDS011;6396;58.490;15.528;2023-02-17T12:55:03;13.73;;;7.77;;
12663;SDS011;6396;58.490;15.528;2023-02-17T12:57:40;13.47;;;6.83;;
12663;SDS011;6396;58.490;15.528;2023-02-17T13:00:18;12.57;;;6.97;;
12663;SDS011;6396;58.490;15.528;2023-02-17T13:02:47;13.07;;;7.57;;
12663;SDS011;6396;58.490;15.528;2023-02-17T13:05:16;10.30;;;6.63;;
12663;SDS011;6396;58.490;15.528;2023-02-17T13:07:47;9.97;;;6.00;;
12663;SDS011;6396;58.490;15.528;2023-02-17T13:10:19;10.50;;;6.17;;
12663;SDS011;6396;58.490;15.528;2023-02-17T13:12:54;11.77;;;5.70;;
12663;SDS011;6396;58.490;15.528;2023-02-17T13:15:26;8.97;;;6.03;;
12663;SDS011;6396;58.490;15.528;2023-02-17T13:17:55;9.73;;;5.83;;
12663;SDS011;6396;58.490;15.528;2023-02-17T13:20:27;9.87;;;5.30;;
12663;SDS011;6396;58.490;15.528;2023-02-17T13:23:12;6.43;;;4.73;;
12663;SDS011;6396;58.490;15.528;2023-02-17T13:25:59;7.83;;;5.23;;
12663;SDS011;6396;58.490;15.528;2023-02-17T13:28:31;6.07;;;4.43;;
12663;SDS011;6396;58.490;15.528;2023-02-17T13:33:51;8.37;;;5.20;;
12663;SDS011;6396;58.490;15.528;2023-02-17T13:36:21;8.63;;;5.10;;
12663;SDS011;6396;58.490;15.528;2023-02-17T13:39:00;8.43;;;5.13;;
12663;SDS011;6396;58.490;15.528;2023-02-17T13:41:31;7.03;;;4.57;;
12663;SDS011;6396;58.490;15.528;2023-02-17T13:44:11;6.40;;;4.43;;
12663;SDS011;6396;58.490;15.528;2023-02-17T13:46:53;6.10;;;4.47;;
12663;SDS011;6396;58.490;15.528;2023-02-17T13:49:24;5.70;;;3.77;;
12663;SDS011;6396;58.490;15.528;2023-02-17T13:51:53;5.87;;;4.33;;
12663;SDS011;6396;58.490;15.528;2023-02-17T13:54:21;6.20;;;4.60;;
12663;SDS011;6396;58.490;15.528;2023-02-17T13:56:50;5.70;;;4.47;;
12663;SDS011;6396;58.490;15.528;2023-02-17T13:59:22;6.30;;;4.67;;
12663;SDS011;6396;58.490;15.528;2023-02-17T14:01:50;5.80;;;4.10;;
12663;SDS011;6396;58.490;15.528;2023-02-17T14:04:21;5.73;;;4.23;;
12663;SDS011;6396;58.490;15.528;2023-02-17T14:06:49;5.83;;;4.20;;
12663;SDS011;6396;58.490;15.528;2023-02-17T14:09:20;5.13;;;3.73;;
12663;SDS011;6396;58.490;15.528;2023-02-17T14:11:49;5.73;;;3.80;;
12663;SDS011;6396;58.490;15.528;2023-02-17T14:14:17;4.77;;;3.97;;
12663;SDS011;6396;58.490;15.528;2023-02-17T14:16:44;6.47;;;3.93;;
12663;SDS011;6396;58.490;15.528;2023-02-17T14:19:22;4.97;;;3.80;;
12663;SDS011;6396;58.490;15.528;2023-02-17T14:21:56;6.23;;;3.63;;
12663;SDS011;6396;58.490;15.528;2023-02-17T14:24:25;5.07;;;4.50;;
12663;SDS011;6396;58.490;15.528;2023-02-17T14:26:55;6.30;;;4.13;;
12663;SDS011;6396;58.490;15.528;2023-02-17T14:29:24;5.03;;;3.90;;
12663;SDS011;6396;58.490;15.528;2023-02-17T14:31:51;5.40;;;3.90;;
12663;SDS011;6396;58.490;15.528;2023-02-17T14:34:27;4.43;;;3.80;;
12663;SDS011;6396;58.490;15.528;2023-02-17T14:37:05;4.27;;;3.40;;
12663;SDS011;6396;58.490;15.528;2023-02-17T14:39:33;4.80;;;3.43;;
12663;SDS011;6396;58.490;15.528;2023-02-17T14:41:59;3.87;;;3.17;;
12663;SDS011;6396;58.490;15.528;2023-02-17T14:44:26;3.80;;;2.87;;
12663;SDS011;6396;58.490;15.528;2023-02-17T14:46:53;5.07;;;3.27;;
12663;SDS011;6396;58.490;15.528;2023-02-17T14:49:19;4.63;;;3.30;;
12663;SDS011;6396;58.490;15.528;2023-02-17T14:51:48;5.23;;;3.53;;
12663;SDS011;6396;58.490;15.528;2023-02-17T14:54:15;4.87;;;3.70;;
12663;SDS011;6396;58.490;15.528;2023-02-17T14:56:46;4.87;;;3.60;;
12663;SDS011;6396;58.490;15.528;2023-02-17T14:59:18;4.70;;;3.60;;
12663;SDS011;6396;58.490;15.528;2023-02-17T15:01:45;5.17;;;3.33;;
12663;SDS011;6396;58.490;15.528;2023-02-17T15:04:12;4.53;;;3.57;;
12663;SDS011;6396;58.490;15.528;2023-02-17T15:06:39;3.90;;;3.10;;
12663;SDS011;6396;58.490;15.528;2023-02-17T15:09:10;3.77;;;3.30;;
12663;SDS011;6396;58.490;15.528;2023-02-17T15:11:39;5.70;;;3.23;;
12663;SDS011;6396;58.490;15.528;2023-02-17T15:14:10;4.23;;;2.80;;
12663;SDS011;6396;58.490;15.528;2023-02-17T15:16:39;3.80;;;2.83;;
12663;SDS011;6396;58.490;15.528;2023-02-17T15:19:06;2.40;;;2.20;;
12663;SDS011;6396;58.490;15.528;2023-02-17T15:21:34;2.63;;;2.40;;
12663;SDS011;6396;58.490;15.528;2023-02-17T15:24:07;3.50;;;2.20;;
12663;SDS011;6396;58.490;15.528;2023-02-17T15:26:41;2.47;;;2.20;;
12663;SDS011;6396;58.490;15.528;2023-02-17T15:29:10;2.10;;;1.90;;
12663;SDS011;6396;58.490;15.528;2023-02-17T15:31:41;2.80;;;2.30;;
12663;SDS011;6396;58.490;15.528;2023-02-17T15:34:11;3.73;;;2.10;;
12663;SDS011;6396;58.490;15.528;2023-02-17T15:36:39;2.83;;;2.00;;
12663;SDS011;6396;58.490;15.528;2023-02-17T15:39:07;2.93;;;1.63;;
12663;SDS011;6396;58.490;15.528;2023-02-17T15:41:36;2.93;;;1.67;;
12663;SDS011;6396;58.490;15.528;2023-02-17T15:44:05;1.90;;;1.77;;
12663;SDS011;6396;58.490;15.528;2023-02-17T15:46:37;1.83;;;1.60;;
12663;SDS011;6396;58.490;15.528;2023-02-17T15:49:04;1.80;;;1.70;;
12663;SDS011;6396;58.490;15.528;2023-02-17T15:51:31;2.43;;;1.80;;
12663;SDS011;6396;58.490;15.528;2023-02-17T15:53:57;3.20;;;2.10;;
12663;SDS011;6396;58.490;15.528;2023-02-17T15:56:26;3.80;;;1.67;;
12663;SDS011;6396;58.490;15.528;2023-02-17T15:58:59;1.60;;;1.50;;
12663;SDS011;6396;58.490;15.528;2023-02-17T16:01:33;2.23;;;1.43;;
12663;SDS011;6396;58.490;15.528;2023-02-17T16:04:00;2.13;;;1.33;;
12663;SDS011;6396;58.490;15.528;2023-02-17T16:06:28;1.70;;;1.43;;
12663;SDS011;6396;58.490;15.528;2023-02-17T16:08:55;1.60;;;1.50;;
12663;SDS011;6396;58.490;15.528;2023-02-17T16:11:23;1.30;;;1.00;;
12663;SDS011;6396;58.490;15.528;2023-02-17T16:13:50;1.73;;;1.10;;
12663;SDS011;6396;58.490;15.528;2023-02-17T16:16:21;1.40;;;1.30;;
12663;SDS011;6396;58.490;15.528;2023-02-17T16:19:10;0.93;;;0.90;;
12663;SDS011;6396;58.490;15.528;2023-02-17T16:48:05;1.13;;;1.03;;
12663;SDS011;6396;58.490;15.528;2023-02-17T16:50:33;2.10;;;0.90;;
12663;SDS011;6396;58.490;15.528;2023-02-17T16:53:01;0.73;;;0.73;;
12663;SDS011;6396;58.490;15.528;2023-02-17T16:55:31;1.13;;;0.80;;
12663;SDS011;6396;58.490;15.528;2023-02-17T16:57:59;1.17;;;0.90;;
12663;SDS011;6396;58.490;15.528;2023-02-17T17:00:27;0.90;;;0.83;;
12663;SDS011;6396;58.490;15.528;2023-02-17T17:02:55;2.10;;;1.00;;
12663;SDS011;6396;58.490;15.528;2023-02-17T17:05:24;1.07;;;0.90;;
12663;SDS011;6396;58.490;15.528;2023-02-17T17:07:53;1.10;;;1.00;;
12663;SDS011;6396;58.490;15.528;2023-02-17T17:10:21;2.20;;;1.10;;
12663;SDS011;6396;58.490;15.528;2023-02-17T17:12:49;2.27;;;1.60;;
12663;SDS011;6396;58.490;15.528;2023-02-17T17:15:16;1.73;;;1.57;;
12663;SDS011;6396;58.490;15.528;2023-02-17T17:17:45;1.80;;;1.70;;
12663;SDS011;6396;58.490;15.528;2023-02-17T17:20:17;1.67;;;1.50;;
12663;SDS011;6396;58.490;15.528;2023-02-17T17:22:47;2.27;;;1.57;;
12663;SDS011;6396;58.490;15.528;2023-02-17T17:25:14;2.93;;;1.40;;
12663;SDS011;6396;58.490;15.528;2023-02-17T17:27:42;2.70;;;1.30;;